Kuala Dungun, Malaysia
Current Conditions -  °F | °C
As of 2:00 AM on Monday 26 Jan 2015 (Local Time) from WMKN Reporting Station
Broken Clouds Broken Clouds  
Wind Chill: 79°   Ceiling: 27000
Heat Index: 82°   Visibility: 6mi
Dew Point: 72°   Wind: 3mph
Humidity: 78%   Direction: 80°E
Pressure: 29.94"   Gusts: NA
Location:  4.78°N, 103.43°E
Report Text: WMKN 251800Z 08003KT 9000 SCT024 SCT140 BKN270 26/22 Q1014
Loading
Personal Weather Stations






























Interactive Weather Map New forecast layout! Learn more

10-Day Weather Forecast

Advertisements
Track Severe Weather on mobile